createdAt,value
2022-07-28T00:01:07.222Z,9.60
2022-07-28T00:03:08.760Z,10.27
2022-07-28T00:05:10.845Z,7.47
2022-07-28T00:07:12.565Z,8.63
2022-07-28T00:09:14.074Z,8.07
2022-07-28T00:11:15.750Z,7.25
2022-07-28T00:13:17.266Z,8.23
2022-07-28T00:15:18.892Z,9.60
2022-07-28T00:17:21.871Z,9.07
2022-07-28T00:19:23.458Z,7.93
2022-07-28T00:21:25.006Z,8.32
2022-07-28T00:23:37.592Z,7.47
2022-07-28T00:25:40.935Z,9.18
2022-07-28T00:27:42.491Z,7.47
2022-07-28T00:29:50.381Z,4.60
2022-07-28T00:31:52.478Z,9.70
2022-07-28T00:33:55.598Z,7.15
2022-07-28T00:35:57.334Z,7.10
2022-07-28T00:38:00.272Z,8.10
2022-07-28T00:40:03.369Z,12.85
2022-07-28T00:42:05.221Z,8.60
2022-07-28T00:44:07.229Z,6.57
2022-07-28T00:46:09.325Z,11.27
2022-07-28T00:48:10.926Z,8.70
2022-07-28T00:50:13.802Z,9.85
2022-07-28T00:52:16.433Z,8.13
2022-07-28T00:54:18.054Z,8.00
2022-07-28T00:56:20.275Z,8.73
2022-07-28T00:58:21.857Z,6.68
2022-07-28T01:00:23.509Z,6.70
2022-07-28T01:02:25.218Z,6.10
2022-07-28T01:04:27.028Z,7.50
2022-07-28T01:06:44.796Z,7.38
2022-07-28T01:08:59.032Z,6.35
2022-07-28T01:11:07.051Z,5.65
2022-07-28T01:13:13.358Z,6.20
2022-07-28T01:15:22.990Z,5.40
2022-07-28T01:17:32.995Z,6.25
2022-07-28T01:19:44.896Z,4.80
2022-07-28T01:21:48.634Z,6.07
2022-07-28T01:24:10.235Z,8.18
2022-07-28T01:26:41.846Z,5.55
2022-07-28T01:28:58.628Z,4.93
2022-07-28T01:31:05.576Z,5.57
2022-07-28T01:33:15.322Z,6.57
2022-07-28T01:35:23.041Z,6.38
2022-07-28T01:37:27.902Z,6.65
2022-07-28T01:39:33.733Z,10.15
2022-07-28T01:41:38.499Z,14.88
2022-07-28T01:43:44.567Z,11.30
2022-07-28T01:45:46.487Z,11.65
2022-07-28T01:47:50.369Z,8.07
2022-07-28T01:49:55.472Z,17.45
2022-07-28T01:51:58.453Z,14.57
2022-07-28T01:54:01.804Z,19.08
2022-07-28T01:56:05.265Z,13.88
2022-07-28T01:58:07.339Z,16.63
2022-07-28T02:00:09.937Z,10.00
2022-07-28T02:02:14.359Z,5.43
2022-07-28T02:04:19.782Z,7.53
2022-07-28T02:06:23.141Z,4.65
2022-07-28T02:08:25.472Z,5.85
2022-07-28T02:10:29.012Z,9.60
2022-07-28T02:12:33.315Z,18.83
2022-07-28T02:14:37.133Z,14.85
2022-07-28T02:16:41.264Z,13.10
2022-07-28T02:18:43.887Z,6.38
2022-07-28T02:20:47.014Z,8.35
2022-07-28T02:22:51.171Z,8.30
2022-07-28T02:24:54.318Z,8.65
2022-07-28T02:26:59.097Z,12.20
2022-07-28T02:29:03.690Z,9.70
2022-07-28T02:31:11.460Z,10.32
2022-07-28T02:33:16.932Z,10.13
2022-07-28T02:35:45.321Z,8.43
2022-07-28T02:37:55.693Z,12.85
2022-07-28T02:40:00.231Z,10.95
2022-07-28T02:42:06.919Z,21.45
2022-07-28T02:44:13.250Z,44.90
2022-07-28T02:46:18.594Z,30.08
2022-07-28T02:48:24.526Z,43.28
2022-07-28T02:50:29.532Z,32.17
2022-07-28T02:52:33.124Z,19.05
2022-07-28T02:54:37.056Z,22.95
2022-07-28T02:56:40.397Z,13.55
2022-07-28T02:58:42.387Z,12.23
2022-07-28T03:00:44.571Z,11.10
2022-07-28T03:02:46.456Z,16.70
2022-07-28T03:04:49.157Z,17.70
2022-07-28T03:06:51.022Z,19.67
2022-07-28T03:08:52.592Z,16.90
2022-07-28T03:11:08.168Z,16.75
2022-07-28T03:13:09.937Z,32.97
2022-07-28T03:15:11.589Z,33.65
2022-07-28T03:17:13.399Z,34.28
2022-07-28T03:19:14.984Z,35.92
2022-07-28T03:21:16.553Z,22.52
2022-07-28T03:23:20.409Z,25.83
2022-07-28T03:25:26.454Z,25.45
2022-07-28T03:27:32.149Z,34.95
2022-07-28T03:29:35.476Z,19.73
2022-07-28T03:31:38.794Z,18.17
2022-07-28T03:33:40.475Z,14.05
2022-07-28T03:35:45.983Z,10.30
2022-07-28T03:37:54.043Z,16.23
2022-07-28T03:39:58.106Z,5.63
2022-07-28T03:42:01.025Z,7.75
2022-07-28T03:44:05.400Z,11.43
2022-07-28T03:46:12.829Z,8.00
2022-07-28T03:48:15.114Z,8.93
2022-07-28T03:50:16.949Z,9.80
2022-07-28T03:52:18.795Z,9.93
2022-07-28T03:54:20.421Z,11.52
2022-07-28T03:56:21.978Z,16.30
2022-07-28T03:58:25.989Z,7.97
2022-07-28T04:00:31.931Z,7.13
2022-07-28T04:02:33.516Z,10.23
2022-07-28T04:04:35.129Z,7.50
2022-07-28T04:06:36.718Z,8.13
2022-07-28T04:08:38.449Z,7.75
2022-07-28T04:10:40.025Z,8.32
2022-07-28T04:12:46.039Z,10.05
2022-07-28T04:14:47.593Z,13.27
2022-07-28T04:16:50.527Z,8.48
2022-07-28T04:18:52.071Z,6.25
2022-07-28T04:20:53.685Z,11.00
2022-07-28T04:22:56.226Z,6.22
2022-07-28T04:24:57.804Z,10.23
2022-07-28T04:26:59.379Z,10.60
2022-07-28T04:29:03.292Z,13.85
2022-07-28T04:31:05.148Z,8.88
2022-07-28T04:33:08.077Z,12.55
2022-07-28T04:35:14.106Z,13.55
2022-07-28T04:37:18.868Z,17.35
2022-07-28T04:39:20.512Z,12.70
2022-07-28T04:41:22.049Z,16.80
2022-07-28T04:43:23.806Z,12.85
2022-07-28T04:45:25.384Z,8.57
2022-07-28T04:47:26.904Z,9.85
2022-07-28T04:49:29.766Z,11.18
2022-07-28T04:51:37.179Z,6.55
2022-07-28T04:53:38.725Z,8.25
2022-07-28T04:55:40.252Z,8.57
2022-07-28T04:57:41.993Z,6.97
2022-07-28T04:59:43.555Z,7.53
2022-07-28T05:01:45.172Z,6.82
2022-07-28T05:03:46.774Z,6.43
2022-07-28T05:05:54.805Z,7.30
2022-07-28T05:07:56.660Z,8.57
2022-07-28T05:09:58.168Z,9.35
2022-07-28T05:11:59.668Z,9.40
2022-07-28T05:14:01.193Z,6.75
2022-07-28T05:16:03.530Z,6.28
2022-07-28T05:18:05.343Z,6.38
2022-07-28T05:20:07.631Z,9.07
2022-07-28T05:22:10.518Z,9.00
2022-07-28T05:24:12.304Z,9.45
2022-07-28T05:26:13.994Z,5.55
2022-07-28T05:28:15.557Z,7.18
2022-07-28T05:30:19.383Z,9.23
2022-07-28T05:32:20.942Z,22.35
2022-07-28T05:34:22.643Z,9.95
2022-07-28T05:36:24.402Z,8.13
2022-07-28T05:38:28.442Z,7.22
2022-07-28T05:40:30.257Z,6.55
2022-07-28T05:42:31.763Z,9.50
2022-07-28T05:44:37.886Z,11.10
2022-07-28T05:46:39.667Z,9.48
2022-07-28T05:48:41.287Z,8.10
2022-07-28T05:50:42.891Z,7.90
2022-07-28T05:52:45.415Z,11.77
2022-07-28T05:54:48.359Z,6.63
2022-07-28T05:56:50.437Z,5.40
2022-07-28T05:58:52.133Z,8.05
2022-07-28T06:00:53.729Z,7.43
2022-07-28T06:02:55.313Z,7.32
2022-07-28T06:04:57.278Z,6.13
2022-07-28T06:06:58.816Z,6.63
2022-07-28T06:09:00.422Z,5.13
2022-07-28T06:11:03.452Z,5.57
2022-07-28T06:13:04.997Z,7.03
2022-07-28T06:15:08.054Z,6.65
2022-07-28T06:17:09.657Z,7.50
2022-07-28T06:19:11.180Z,6.55
2022-07-28T06:21:12.685Z,6.40
2022-07-28T06:23:18.290Z,6.32
2022-07-28T06:25:23.191Z,7.57
2022-07-28T06:27:26.061Z,5.25
2022-07-28T06:29:27.619Z,8.90
2022-07-28T06:31:29.206Z,8.52
2022-07-28T06:33:30.829Z,7.57
2022-07-28T06:35:32.412Z,7.00
2022-07-28T06:37:49.312Z,8.75
2022-07-28T06:39:50.856Z,9.02
2022-07-28T06:41:52.512Z,6.93
2022-07-28T06:43:55.412Z,6.68
2022-07-28T06:45:56.906Z,9.95
2022-07-28T06:47:58.452Z,12.48
2022-07-28T06:50:00.005Z,10.40
2022-07-28T06:52:01.632Z,4.70
2022-07-28T06:54:05.799Z,6.10
2022-07-28T06:56:13.689Z,6.65
2022-07-28T06:58:17.368Z,5.78
2022-07-28T07:00:20.287Z,7.25
2022-07-28T07:02:25.077Z,7.20
2022-07-28T07:04:29.555Z,5.78
2022-07-28T07:06:31.181Z,7.70
2022-07-28T07:08:32.960Z,7.53
2022-07-28T07:10:34.518Z,7.85
2022-07-28T07:12:36.421Z,6.88
2022-07-28T07:14:38.034Z,8.57
2022-07-28T07:16:40.992Z,6.47
2022-07-28T07:18:42.549Z,6.55
2022-07-28T07:20:44.067Z,7.72
2022-07-28T07:22:47.104Z,5.30
2022-07-28T07:24:50.504Z,6.20
2022-07-28T07:26:55.187Z,5.75
2022-07-28T07:28:56.736Z,7.13
2022-07-28T07:30:58.300Z,6.93
2022-07-28T07:33:01.148Z,6.20
2022-07-28T07:35:03.301Z,8.00
2022-07-28T07:37:05.576Z,6.53
2022-07-28T07:39:07.102Z,8.55
2022-07-28T07:41:08.608Z,8.05
2022-07-28T07:43:10.971Z,5.93
2022-07-28T07:45:12.510Z,6.28
2022-07-28T07:47:14.014Z,4.47
2022-07-28T07:49:17.103Z,5.25
2022-07-28T07:51:18.676Z,6.95
2022-07-28T07:53:20.383Z,7.50
2022-07-28T07:55:21.901Z,7.45
2022-07-28T07:57:23.418Z,8.02
2022-07-28T07:59:24.929Z,6.53
2022-07-28T08:01:26.536Z,7.85
2022-07-28T08:03:28.080Z,6.47
2022-07-28T08:05:35.812Z,7.88
2022-07-28T08:07:37.956Z,10.85
2022-07-28T08:09:39.436Z,11.63
2022-07-28T08:11:41.000Z,7.18
2022-07-28T08:13:42.551Z,7.30
2022-07-28T08:15:44.164Z,8.50
2022-07-28T08:17:45.705Z,5.18
2022-07-28T08:19:47.388Z,5.97
2022-07-28T08:21:50.561Z,5.55
2022-07-28T08:23:52.954Z,7.60
2022-07-28T08:25:54.602Z,7.60
2022-07-28T08:27:56.160Z,5.35
2022-07-28T08:29:57.697Z,5.35
2022-07-28T08:31:59.549Z,10.70
2022-07-28T08:34:01.119Z,8.68
2022-07-28T08:36:02.724Z,5.55
2022-07-28T08:38:05.839Z,7.32
2022-07-28T08:40:08.913Z,6.93
2022-07-28T08:42:15.241Z,7.53
2022-07-28T08:44:20.716Z,5.70
2022-07-28T08:46:23.137Z,6.55
2022-07-28T08:48:27.297Z,6.60
2022-07-28T08:50:30.999Z,6.57
2022-07-28T08:52:33.232Z,6.53
2022-07-28T08:54:37.442Z,5.38
2022-07-28T08:56:41.157Z,5.25
2022-07-28T08:58:49.697Z,5.75
2022-07-28T09:00:51.307Z,5.78
2022-07-28T09:02:53.206Z,11.52
2022-07-28T09:04:55.833Z,12.38
2022-07-28T09:06:57.451Z,6.53
2022-07-28T09:08:58.992Z,8.80
2022-07-28T09:11:01.913Z,4.72
2022-07-28T09:13:03.467Z,6.75
2022-07-28T09:15:07.363Z,6.97
2022-07-28T09:17:09.305Z,5.13
2022-07-28T09:19:10.819Z,3.85
2022-07-28T09:21:13.305Z,4.05
2022-07-28T09:23:43.033Z,6.38
2022-07-28T09:25:36.585Z,5.32
2022-07-28T09:27:44.663Z,5.93
2022-07-28T09:29:47.935Z,5.93
2022-07-28T09:31:55.866Z,4.95
2022-07-28T09:34:00.471Z,4.93
2022-07-28T09:36:02.347Z,6.95
2022-07-28T09:38:04.473Z,5.75
2022-07-28T09:40:11.045Z,5.07
2022-07-28T09:42:12.990Z,5.30
2022-07-28T09:44:19.577Z,4.97
2022-07-28T09:46:23.690Z,6.20
2022-07-28T09:48:25.689Z,5.70
2022-07-28T09:50:27.368Z,7.15
2022-07-28T09:52:30.673Z,9.10
2022-07-28T09:54:35.117Z,5.28
2022-07-28T09:56:40.889Z,6.95
2022-07-28T09:58:53.954Z,4.00
2022-07-28T10:01:07.623Z,6.00
2022-07-28T10:05:11.067Z,7.43
2022-07-28T10:07:14.410Z,8.23
2022-07-28T10:09:26.244Z,6.13
2022-07-28T10:11:29.092Z,6.30
2022-07-28T10:13:30.629Z,5.13
2022-07-28T10:15:32.216Z,5.00
2022-07-28T10:17:35.276Z,4.38
2022-07-28T10:19:37.257Z,5.38
2022-07-28T10:21:42.589Z,5.47
2022-07-28T10:23:49.391Z,5.53
2022-07-28T10:25:52.755Z,5.40
2022-07-28T10:27:56.642Z,6.07
2022-07-28T10:30:00.666Z,6.57
2022-07-28T10:32:05.228Z,5.20
2022-07-28T10:34:16.329Z,4.28
2022-07-28T10:36:23.528Z,4.55
2022-07-28T10:38:26.672Z,3.13
2022-07-28T10:40:31.800Z,5.07
2022-07-28T10:42:34.446Z,5.53
2022-07-28T10:44:37.749Z,5.45
2022-07-28T10:46:41.302Z,4.38
2022-07-28T10:48:43.648Z,5.88
2022-07-28T10:50:47.156Z,5.35
2022-07-28T10:52:51.475Z,4.30
2022-07-28T10:55:02.813Z,7.68
2022-07-28T10:57:07.105Z,10.95
2022-07-28T10:59:22.054Z,5.97
2022-07-28T11:01:48.308Z,4.38
2022-07-28T11:03:51.189Z,3.72
2022-07-28T11:05:54.238Z,6.55
2022-07-28T11:07:56.205Z,6.57
2022-07-28T11:10:15.390Z,6.32
2022-07-28T11:12:45.767Z,5.10
2022-07-28T11:14:47.352Z,4.00
2022-07-28T11:16:49.658Z,4.78
2022-07-28T11:19:07.994Z,4.30
2022-07-28T11:21:28.404Z,37.45
2022-07-28T11:23:54.854Z,7.68
2022-07-28T11:26:26.834Z,8.13
2022-07-28T11:28:28.420Z,3.63
2022-07-28T11:30:54.685Z,3.83
2022-07-28T11:35:09.113Z,4.60
2022-07-28T11:37:15.127Z,4.50
2022-07-28T11:39:23.405Z,3.90
2022-07-28T11:41:27.517Z,6.10
2022-07-28T11:43:37.319Z,4.43
2022-07-28T11:45:44.416Z,4.18
2022-07-28T11:48:13.318Z,4.55
2022-07-28T11:50:16.368Z,5.97
2022-07-28T11:52:22.719Z,5.55
2022-07-28T11:54:25.404Z,4.40
2022-07-28T11:56:29.366Z,4.82
2022-07-28T11:58:31.001Z,3.92
2022-07-28T12:00:32.605Z,4.18
2022-07-28T12:02:35.182Z,6.30
2022-07-28T12:04:37.056Z,4.75
2022-07-28T12:06:40.110Z,5.47
2022-07-28T12:08:52.210Z,4.78
2022-07-28T12:10:56.044Z,6.22
2022-07-28T12:13:00.113Z,6.38
2022-07-28T12:15:06.642Z,4.28
2022-07-28T12:17:08.953Z,3.95
2022-07-28T12:19:15.160Z,5.03
2022-07-28T12:21:16.681Z,4.15
2022-07-28T12:23:29.545Z,5.38
2022-07-28T12:25:43.712Z,6.75
2022-07-28T12:27:45.982Z,5.32
2022-07-28T12:29:56.180Z,4.60
2022-07-28T12:31:59.743Z,5.43
2022-07-28T12:34:01.748Z,5.22
2022-07-28T12:36:05.001Z,4.35
2022-07-28T12:38:06.653Z,7.78
2022-07-28T12:40:10.117Z,5.07
2022-07-28T12:42:13.276Z,5.00
2022-07-28T12:44:15.710Z,6.35
2022-07-28T12:46:21.290Z,5.93
2022-07-28T12:48:23.342Z,4.00
2022-07-28T12:50:24.890Z,4.05
2022-07-28T12:52:26.520Z,4.28
2022-07-28T12:54:37.660Z,4.57
2022-07-28T12:56:46.773Z,4.43
2022-07-28T12:58:49.899Z,5.88
2022-07-28T13:00:52.731Z,5.65
2022-07-28T13:02:56.903Z,3.92
2022-07-28T13:04:58.459Z,7.07
2022-07-28T13:07:00.033Z,4.50
2022-07-28T13:09:01.607Z,6.25
2022-07-28T13:11:03.248Z,6.00
2022-07-28T13:13:06.400Z,6.65
2022-07-28T13:15:16.326Z,5.40
2022-07-28T13:17:18.647Z,4.20
2022-07-28T13:19:21.516Z,4.43
2022-07-28T13:21:37.873Z,5.65
2022-07-28T13:23:39.515Z,7.65
2022-07-28T13:25:41.098Z,7.10
2022-07-28T13:27:42.683Z,6.43
2022-07-28T13:29:44.192Z,4.60
2022-07-28T13:31:47.199Z,4.57
2022-07-28T13:33:48.860Z,5.25
2022-07-28T13:35:50.375Z,5.45
2022-07-28T13:37:51.898Z,4.93
2022-07-28T13:39:54.690Z,4.15
2022-07-28T13:41:58.929Z,5.25
2022-07-28T13:44:00.893Z,5.10
2022-07-28T13:46:03.036Z,3.42
2022-07-28T13:48:07.922Z,4.65
2022-07-28T13:50:11.282Z,3.95
2022-07-28T13:52:13.588Z,5.47
2022-07-28T13:54:15.500Z,4.88
2022-07-28T13:56:35.974Z,3.13
2022-07-28T13:58:38.104Z,6.32
2022-07-28T14:00:40.477Z,8.75
2022-07-28T14:02:44.218Z,5.10
2022-07-28T14:04:50.371Z,4.07
2022-07-28T14:06:52.710Z,4.30
2022-07-28T14:08:54.260Z,4.53
2022-07-28T14:10:58.076Z,4.63
2022-07-28T14:12:59.615Z,4.38
2022-07-28T14:15:01.141Z,5.28
2022-07-28T14:17:19.658Z,4.57
2022-07-28T14:19:37.778Z,4.65
2022-07-28T14:21:42.274Z,5.10
2022-07-28T14:23:44.117Z,5.45
2022-07-28T14:25:49.637Z,4.22
2022-07-28T14:27:53.153Z,6.03
2022-07-28T14:29:54.735Z,4.22
2022-07-28T14:31:56.342Z,4.30
2022-07-28T14:33:57.915Z,4.32
2022-07-28T14:35:59.469Z,3.90
2022-07-28T14:38:42.375Z,5.22
2022-07-28T14:40:23.949Z,4.38
2022-07-28T14:42:25.524Z,4.18
2022-07-28T14:44:27.214Z,5.90
2022-07-28T14:46:29.863Z,4.63
2022-07-28T14:48:31.569Z,4.43
2022-07-28T14:50:33.689Z,3.83
2022-07-28T14:52:35.202Z,5.55
2022-07-28T14:54:38.197Z,5.10
2022-07-28T14:56:39.703Z,4.30
2022-07-28T14:58:41.633Z,5.90
2022-07-28T15:00:43.225Z,4.18
2022-07-28T15:02:45.722Z,4.57
2022-07-28T15:04:47.401Z,5.18
2022-07-28T15:06:48.950Z,5.57
2022-07-28T15:08:50.583Z,4.82
2022-07-28T15:10:53.492Z,4.20
2022-07-28T15:12:55.090Z,5.45
2022-07-28T15:14:56.627Z,4.10
2022-07-28T15:16:58.136Z,3.83
2022-07-28T15:18:59.665Z,5.35
2022-07-28T15:21:01.181Z,4.78
2022-07-28T15:23:02.680Z,5.60
2022-07-28T15:25:05.059Z,5.68
2022-07-28T15:27:08.821Z,5.35
2022-07-28T15:29:10.377Z,5.90
2022-07-28T15:31:13.009Z,4.32
2022-07-28T15:33:14.525Z,7.20
2022-07-28T15:35:20.594Z,4.60
2022-07-28T15:37:22.193Z,5.35
2022-07-28T15:39:23.902Z,5.15
2022-07-28T15:41:25.416Z,5.75
2022-07-28T15:43:28.898Z,6.95
2022-07-28T15:45:30.475Z,6.20
2022-07-28T15:47:32.688Z,5.85
2022-07-28T15:49:34.448Z,6.50
2022-07-28T15:51:36.816Z,4.60
2022-07-28T15:53:38.580Z,5.68
2022-07-28T15:55:40.172Z,7.93
2022-07-28T15:57:41.729Z,4.43
2022-07-28T15:59:49.198Z,6.15
2022-07-28T16:01:52.630Z,5.05
2022-07-28T16:03:54.446Z,6.78
2022-07-28T16:05:56.081Z,5.38
2022-07-28T16:07:57.627Z,11.30
2022-07-28T16:09:59.165Z,5.80
2022-07-28T16:12:00.697Z,8.60
2022-07-28T16:14:02.227Z,5.35
2022-07-28T16:16:06.488Z,4.50
2022-07-28T16:18:08.053Z,7.28
2022-07-28T16:20:11.482Z,7.00
2022-07-28T16:22:13.032Z,3.90
2022-07-28T16:24:14.790Z,5.93
2022-07-28T16:26:16.646Z,6.18
2022-07-28T16:28:18.191Z,5.30
2022-07-28T16:30:20.429Z,6.28
2022-07-28T16:32:23.376Z,5.97
2022-07-28T16:34:24.914Z,5.50
2022-07-28T16:36:26.495Z,5.55
2022-07-28T16:38:28.123Z,7.32
2022-07-28T16:40:29.819Z,8.10
2022-07-28T16:42:31.353Z,3.78
2022-07-28T16:44:32.931Z,7.28
2022-07-28T16:46:34.512Z,4.25
2022-07-28T16:48:37.531Z,6.35
2022-07-28T16:50:39.185Z,8.02
2022-07-28T16:52:40.719Z,5.22
2022-07-28T16:54:42.569Z,4.07
2022-07-28T16:56:44.117Z,7.85
2022-07-28T16:58:46.225Z,6.40
2022-07-28T17:00:47.786Z,4.65
2022-07-28T17:02:50.749Z,6.35
2022-07-28T17:04:53.690Z,7.45
2022-07-28T17:06:55.294Z,4.35
2022-07-28T17:08:56.930Z,6.03
2022-07-28T17:10:58.609Z,6.50
2022-07-28T17:13:00.331Z,4.88
2022-07-28T17:15:02.060Z,4.65
2022-07-28T17:17:03.721Z,5.00
2022-07-28T17:19:05.305Z,4.47
2022-07-28T17:21:08.206Z,3.90
2022-07-28T17:23:09.897Z,4.35
2022-07-28T17:25:35.173Z,4.30
2022-07-28T17:27:37.657Z,4.65
2022-07-28T17:29:40.187Z,4.85
2022-07-28T17:31:41.727Z,5.32
2022-07-28T17:33:43.335Z,5.18
2022-07-28T17:35:44.863Z,5.50
2022-07-28T17:37:47.743Z,5.68
2022-07-28T17:39:49.356Z,5.68
2022-07-28T17:41:50.916Z,11.75
2022-07-28T17:43:52.491Z,6.03
2022-07-28T17:45:54.537Z,5.45
2022-07-28T17:47:56.088Z,6.18
2022-07-28T17:49:57.601Z,10.82
2022-07-28T17:51:59.153Z,5.75
2022-07-28T17:54:01.996Z,7.43
2022-07-28T17:56:06.914Z,4.15
2022-07-28T17:58:12.044Z,6.32
2022-07-28T18:00:14.254Z,6.80
2022-07-28T18:02:15.817Z,4.05
2022-07-28T18:04:18.022Z,5.65
2022-07-28T18:06:19.831Z,4.55
2022-07-28T18:08:21.437Z,6.95
2022-07-28T18:10:27.319Z,4.20
2022-07-28T18:12:29.023Z,9.95
2022-07-28T18:14:30.666Z,4.72
2022-07-28T18:16:32.437Z,7.25
2022-07-28T18:18:34.002Z,6.53
2022-07-28T18:20:36.232Z,6.85
2022-07-28T18:22:37.777Z,7.43
2022-07-28T18:24:39.262Z,4.28
2022-07-28T18:26:42.142Z,4.85
2022-07-28T18:28:43.661Z,6.15
2022-07-28T18:30:45.652Z,5.65
2022-07-28T18:32:47.658Z,5.97
2022-07-28T18:34:49.180Z,3.97
2022-07-28T18:36:50.947Z,5.45
2022-07-28T18:38:52.512Z,5.60
2022-07-28T18:40:54.048Z,5.90
2022-07-28T18:42:57.460Z,4.78
2022-07-28T18:44:59.040Z,6.47
2022-07-28T18:47:00.544Z,4.07
2022-07-28T18:49:02.091Z,4.22
2022-07-28T18:51:03.715Z,6.40
2022-07-28T18:53:05.309Z,5.88
2022-07-28T18:55:07.323Z,3.67
2022-07-28T18:57:08.864Z,7.55
2022-07-28T18:59:11.848Z,6.30
2022-07-28T19:01:13.570Z,5.18
2022-07-28T19:03:15.256Z,6.80
2022-07-28T19:05:16.941Z,6.00
2022-07-28T19:07:18.509Z,4.20
2022-07-28T19:09:20.052Z,6.78
2022-07-28T19:11:21.628Z,11.63
2022-07-28T19:13:23.101Z,7.70
2022-07-28T19:15:26.346Z,8.38
2022-07-28T19:17:28.110Z,5.50
2022-07-28T19:19:29.773Z,6.25
2022-07-28T19:21:31.387Z,5.93
2022-07-28T19:23:32.942Z,4.70
2022-07-28T19:25:34.526Z,8.57
2022-07-28T19:27:36.814Z,5.32
2022-07-28T19:29:38.382Z,6.60
2022-07-28T19:31:41.282Z,6.32
2022-07-28T19:33:44.092Z,8.02
2022-07-28T19:35:45.904Z,7.68
2022-07-28T19:37:47.432Z,8.02
2022-07-28T19:39:48.967Z,10.18
2022-07-28T19:41:50.745Z,5.80
2022-07-28T19:43:52.307Z,9.80
2022-07-28T19:45:53.970Z,9.73
2022-07-28T19:47:56.913Z,8.07
2022-07-28T19:49:58.446Z,5.95
2022-07-28T19:52:00.128Z,6.72
2022-07-28T19:54:01.657Z,6.55
2022-07-28T19:56:03.837Z,7.45
2022-07-28T19:58:08.706Z,12.88
2022-07-28T20:00:11.802Z,8.27
2022-07-28T20:02:13.485Z,6.05
2022-07-28T20:04:16.850Z,7.50
2022-07-28T20:06:18.696Z,7.45
2022-07-28T20:08:26.678Z,6.55
2022-07-28T20:10:28.297Z,5.93
2022-07-28T20:12:35.806Z,6.93
2022-07-28T20:14:38.180Z,10.40
2022-07-28T20:16:39.772Z,5.40
2022-07-28T20:18:41.349Z,5.47
2022-07-28T20:20:44.218Z,6.85
2022-07-28T20:22:45.755Z,6.38
2022-07-28T20:24:47.457Z,7.97
2022-07-28T20:26:49.046Z,10.20
2022-07-28T20:28:50.603Z,6.80
2022-07-28T20:30:52.244Z,6.80
2022-07-28T20:32:53.832Z,6.57
2022-07-28T20:34:55.381Z,5.47
2022-07-28T20:36:58.251Z,8.02
2022-07-28T20:38:59.793Z,5.57
2022-07-28T20:41:01.371Z,11.23
2022-07-28T20:43:08.181Z,9.75
2022-07-28T20:45:10.237Z,6.05
2022-07-28T20:47:12.022Z,6.18
2022-07-28T20:49:13.668Z,3.83
2022-07-28T20:51:15.234Z,5.47
2022-07-28T20:53:18.174Z,7.38
2022-07-28T20:55:19.760Z,5.28
2022-07-28T20:57:21.409Z,4.50
2022-07-28T20:59:27.399Z,5.45
2022-07-28T21:01:29.752Z,5.45
2022-07-28T21:03:31.323Z,5.72
2022-07-28T21:05:35.707Z,6.63
2022-07-28T21:08:00.778Z,5.50
2022-07-28T21:10:00.666Z,6.72
2022-07-28T21:12:02.153Z,5.10
2022-07-28T21:14:04.127Z,5.28
2022-07-28T21:16:05.629Z,5.30
2022-07-28T21:18:07.156Z,5.32
2022-07-28T21:20:09.804Z,4.03
2022-07-28T21:22:11.342Z,4.82
2022-07-28T21:24:13.415Z,5.75
2022-07-28T21:26:16.995Z,5.38
2022-07-28T21:28:18.512Z,4.85
2022-07-28T21:30:20.271Z,6.38
2022-07-28T21:32:29.478Z,7.55
2022-07-28T21:34:30.980Z,6.45
2022-07-28T21:36:33.234Z,6.53
2022-07-28T21:38:34.824Z,6.50
2022-07-28T21:40:36.347Z,8.32
2022-07-28T21:42:39.151Z,6.50
2022-07-28T21:44:40.681Z,6.45
2022-07-28T21:46:42.205Z,5.00
2022-07-28T21:48:43.758Z,4.95
2022-07-28T21:50:45.295Z,7.32
2022-07-28T21:52:46.787Z,5.53
2022-07-28T21:54:48.380Z,6.65
2022-07-28T21:56:49.925Z,5.32
2022-07-28T21:58:52.951Z,6.28
2022-07-28T22:00:58.158Z,4.57
2022-07-28T22:03:02.263Z,4.90
2022-07-28T22:05:04.100Z,5.43
2022-07-28T22:07:05.700Z,5.28
2022-07-28T22:09:07.398Z,5.22
2022-07-28T22:11:08.946Z,5.80
2022-07-28T22:13:10.487Z,6.10
2022-07-28T22:15:13.480Z,3.70
2022-07-28T22:17:15.013Z,4.15
2022-07-28T22:19:16.522Z,4.03
2022-07-28T22:21:18.084Z,4.93
2022-07-28T22:23:29.069Z,6.28
2022-07-28T22:25:31.785Z,6.85
2022-07-28T22:27:33.436Z,6.60
2022-07-28T22:29:34.942Z,6.25
2022-07-28T22:31:37.985Z,4.70
2022-07-28T22:33:39.609Z,6.10
2022-07-28T22:35:41.246Z,5.22
2022-07-28T22:37:42.756Z,4.60
2022-07-28T22:39:44.524Z,6.95
2022-07-28T22:41:46.981Z,7.28
2022-07-28T22:43:48.645Z,9.52
2022-07-28T22:45:51.628Z,4.95
2022-07-28T22:47:54.760Z,4.40
2022-07-28T22:49:56.666Z,7.30
2022-07-28T22:51:58.239Z,6.35
2022-07-28T22:53:59.757Z,7.65
2022-07-28T22:56:01.274Z,5.90
2022-07-28T22:58:05.667Z,5.30
2022-07-28T23:00:08.888Z,6.13
2022-07-28T23:02:11.585Z,5.72
2022-07-28T23:04:15.485Z,6.05
2022-07-28T23:06:17.250Z,6.97
2022-07-28T23:08:18.810Z,5.70
2022-07-28T23:10:20.586Z,6.80
2022-07-28T23:12:22.100Z,5.13
2022-07-28T23:14:23.703Z,6.00
2022-07-28T23:16:25.293Z,6.18
2022-07-28T23:18:26.839Z,6.85
2022-07-28T23:20:29.679Z,7.25
2022-07-28T23:22:31.220Z,4.47
2022-07-28T23:24:32.817Z,7.43
2022-07-28T23:26:34.360Z,7.07
2022-07-28T23:28:35.895Z,4.70
2022-07-28T23:30:37.652Z,5.20
2022-07-28T23:32:39.165Z,5.78
2022-07-28T23:34:40.688Z,4.80
2022-07-28T23:36:43.635Z,5.57
2022-07-28T23:38:45.138Z,3.88
2022-07-28T23:40:46.788Z,5.95
2022-07-28T23:42:48.305Z,4.75
2022-07-28T23:44:49.846Z,6.18
2022-07-28T23:46:51.402Z,7.70
2022-07-28T23:48:52.935Z,7.80
2022-07-28T23:50:54.587Z,5.47
2022-07-28T23:52:57.492Z,6.10
2022-07-28T23:55:01.984Z,6.07
2022-07-28T23:57:03.968Z,5.22
2022-07-28T23:59:08.199Z,9.20
